Time;durP1;ratioP1;P1;durP2;ratioP2;P2;SDS_P1;SDS_P2;PMS_P1;PMS_P2;Temp;Humidity;BMP_temperature;BMP_pressure;BME280_temperature;BME280_humidity;BME280_pressure;Samples;Min_cycle;Max_cycle;Signal;HPM_P1;HPM_P2
2021/11/17 02:26:39;;;;;;;47.22;33.63;;;180.00;2252.80;;;;;;4974251;29;20042;-80
2021/11/17 02:29:59;;;;;;;69.35;40.72;;;180.00;2252.80;;;;;;4954486;29;20046;-80
2021/11/17 02:33:12;;;;;;;56.45;36.50;;;180.00;2252.80;;;;;;4928526;29;20035;-80
2021/11/17 02:36:04;;;;;;;42.53;30.48;;;180.00;2252.80;;;;;;4956926;29;20035;-80
2021/11/17 02:38:51;;;;;;;;;;;180.00;2252.80;;;;;;4972606;29;20031;-80
2021/11/17 02:41:59;;;;;;;41.47;29.25;;;180.00;2252.80;;;;;;4959648;29;20425;-80
2021/11/17 02:44:52;;;;;;;44.17;28.70;;;180.00;2252.80;;;;;;4921813;29;20034;-79
2021/11/17 02:48:22;;;;;;;41.10;29.30;;;180.10;2252.80;;;;;;4974098;29;20127;-80
2021/11/17 02:51:29;;;;;;;42.00;33.17;;;180.10;2252.80;;;;;;4883762;29;20045;-80
2021/11/17 02:54:36;;;;;;;40.58;32.53;;;204.80;2252.80;;;;;;4965581;29;20047;-79
2021/11/17 02:57:30;;;;;;;106.20;87.00;;;204.80;2252.80;;;;;;4974824;28;20037;-81
2021/11/17 03:00:44;;;;;;;91.53;72.03;;;180.10;2252.80;;;;;;4973952;28;20083;-80
2021/11/17 03:03:50;;;;;;;35.25;25.23;;;179.70;2252.80;;;;;;4973870;29;20031;-80
2021/11/17 03:06:55;;;;;;;28.23;22.67;;;180.00;2252.80;;;;;;4959487;29;20062;-80
2021/11/17 03:10:02;;;;;;;30.65;22.42;;;180.10;2252.80;;;;;;4988445;28;20050;-80
2021/11/17 03:13:10;;;;;;;26.13;20.25;;;204.80;2252.80;;;;;;4975692;29;20058;-80
2021/11/17 03:16:20;;;;;;;31.52;21.17;;;180.10;2252.80;;;;;;4970400;29;20035;-80
2021/11/17 03:20:17;;;;;;;29.77;23.38;;;204.80;2252.80;;;;;;4959245;29;20496;-80
2021/11/17 03:23:23;;;;;;;33.10;23.98;;;204.80;2252.80;;;;;;4942013;29;20039;-80
2021/11/17 03:26:30;;;;;;;47.28;26.30;;;204.90;2252.80;;;;;;4975943;29;20043;-80
2021/11/17 03:29:50;;;;;;;31.23;21.45;;;204.90;2252.80;;;;;;4959592;29;20587;-80
2021/11/17 03:32:59;;;;;;;36.42;24.58;;;204.80;2252.80;;;;;;4973450;29;20102;-80
2021/11/17 03:36:33;;;;;;;38.00;25.35;;;204.90;2252.80;;;;;;4976006;29;20030;-80
2021/11/17 03:39:46;;;;;;;50.22;31.38;;;205.00;2252.80;;;;;;4976264;29;20019;-81
2021/11/17 03:42:34;;;;;;;47.40;28.52;;;205.00;2252.80;;;;;;4958568;29;20493;-80
2021/11/17 03:45:42;;;;;;;53.50;31.02;;;205.00;2252.80;;;;;;4934686;29;20032;-80
2021/11/17 03:48:48;;;;;;;49.38;31.67;;;205.10;2252.80;;;;;;4932719;29;20096;-80
2021/11/17 03:51:52;;;;;;;45.97;28.85;;;205.10;2252.80;;;;;;4903709;29;20474;-80
2021/11/17 03:54:57;;;;;;;41.03;25.17;;;205.10;2252.80;;;;;;4903091;29;20100;-80
2021/11/17 03:57:50;;;;;;;35.80;23.73;;;205.10;2252.80;;;;;;4935472;29;20020;-80
2021/11/17 04:00:46;;;;;;;35.40;22.42;;;205.10;2252.80;;;;;;4904115;29;20096;-80
2021/11/17 04:03:53;;;;;;;32.80;22.40;;;205.20;2252.80;;;;;;4904074;29;20036;-80
2021/11/17 04:06:51;;;;;;;37.55;23.98;;;205.20;2252.80;;;;;;4918649;29;20016;-79
2021/11/17 04:09:54;;;;;;;44.55;32.05;;;205.20;2252.80;;;;;;4919773;29;20056;-80
2021/11/17 04:12:45;;;;;;;48.72;34.45;;;205.20;2252.80;;;;;;4924221;29;20053;-80
2021/11/17 04:15:56;;;;;;;55.20;40.38;;;205.20;2252.80;;;;;;4934971;29;20036;-80
2021/11/17 04:19:05;;;;;;;50.65;34.95;;;205.30;2252.80;;;;;;4907043;29;20040;-80
2021/11/17 04:22:32;;;;;;;47.47;32.72;;;205.30;2252.80;;;;;;4954166;29;20043;-80
2021/11/17 04:26:03;;;;;;;44.60;32.03;;;205.30;2252.80;;;;;;4973499;29;20108;-80
2021/11/17 04:29:18;;;;;;;44.90;30.40;;;205.30;2252.80;;;;;;4974085;28;20035;-81
2021/11/17 04:32:48;;;;;;;70.60;42.50;;;205.30;2252.80;;;;;;4965237;28;20120;-81
2021/11/17 04:36:11;;;;;;;67.97;43.70;;;205.30;2252.80;;;;;;4958676;29;20046;-81
2021/11/17 04:39:51;;;;;;;49.90;32.95;;;205.30;2252.80;;;;;;4975932;29;20019;-81
2021/11/17 04:43:08;;;;;;;48.13;30.00;;;205.30;2252.80;;;;;;4974320;29;20031;-82
2021/11/17 04:49:53;;;;;;;54.55;36.65;;;205.30;2252.80;;;;;;4954730;29;20034;-81
2021/11/17 04:52:51;;;;;;;45.47;32.47;;;205.20;2252.80;;;;;;4935441;29;20028;-81
2021/11/17 04:56:20;;;;;;;51.33;34.97;;;205.20;2252.80;;;;;;4935258;29;20028;-81
2021/11/17 04:59:15;;;;;;;47.38;32.88;;;205.30;2252.80;;;;;;4929405;29;20075;-80
2021/11/17 05:02:23;;;;;;;50.08;32.53;;;205.30;2252.80;;;;;;4932568;29;20035;-79
2021/11/17 05:05:18;;;;;;;40.58;27.00;;;205.30;2252.80;;;;;;4916434;29;20114;-81
2021/11/17 05:08:30;;;;;;;32.42;23.65;;;205.20;2252.80;;;;;;4931553;29;20032;-81
2021/11/17 05:11:27;;;;;;;36.17;24.73;;;205.30;2252.80;;;;;;4932301;29;20032;-81
2021/11/17 05:14:46;;;;;;;31.17;22.30;;;205.30;2252.80;;;;;;4933928;29;20142;-80
2021/11/17 05:17:51;;;;;;;30.38;21.00;;;205.30;2252.80;;;;;;4949631;29;20114;-81
2021/11/17 05:20:20;;;;;;;31.95;21.15;;;205.20;2252.80;;;;;;4960861;29;20063;-81
2021/11/17 05:23:25;;;;;;;27.60;19.95;;;205.20;2252.80;;;;;;4975163;28;20027;-80
2021/11/17 05:26:18;;;;;;;38.17;22.52;;;205.20;2252.80;;;;;;4992626;28;20082;-80
2021/11/17 05:29:25;;;;;;;47.67;31.13;;;205.20;2252.80;;;;;;4975541;29;20027;-81
2021/11/17 05:32:17;;;;;;;43.08;29.42;;;205.20;2252.80;;;;;;4975578;29;20028;-81
2021/11/17 05:35:45;;;;;;;32.30;22.83;;;204.90;2252.80;;;;;;4991179;28;20019;-80
2021/11/17 05:39:35;;;;;;;30.92;23.42;;;180.10;2252.80;;;;;;4977590;29;20035;-83
2021/11/17 05:42:53;;;;;;;37.55;24.58;;;204.80;2252.80;;;;;;4928816;29;20385;-81
2021/11/17 05:46:23;;;;;;;42.28;30.30;;;204.80;2252.80;;;;;;4924085;29;20035;-81
2021/11/17 05:49:29;;;;;;;44.08;31.00;;;205.00;2252.80;;;;;;4956087;29;20023;-82
2021/11/17 05:53:09;;;;;;;37.00;29.13;;;205.00;2252.80;;;;;;4954108;29;20038;-82
2021/11/17 05:56:54;;;;;;;37.83;28.05;;;205.00;2252.80;;;;;;4947863;29;20078;-81
2021/11/17 06:00:07;;;;;;;54.33;35.03;;;205.00;2252.80;;;;;;4922152;29;20032;-82
2021/11/17 06:03:43;;;;;;;56.53;38.35;;;204.90;2252.80;;;;;;4951207;29;20067;-81
2021/11/17 06:06:09;;;;;;;47.65;32.97;;;204.90;2252.80;;;;;;4950908;29;20035;-81
2021/11/17 06:08:41;;;;;;;49.45;33.20;;;204.90;2252.80;;;;;;4969623;29;20095;-82
2021/11/17 06:12:03;;;;;;;57.08;36.33;;;205.00;2252.80;;;;;;4972073;29;20039;-82
2021/11/17 06:18:44;;;;;;;69.47;44.25;;;204.90;2252.80;;;;;;4951282;29;20042;-81
2021/11/17 06:36:12;;;;;;;77.75;43.72;;;204.90;2252.80;;;;;;4792048;30;20792;-81
2021/11/17 06:42:34;;;;;;;69.47;39.97;;;204.90;2252.80;;;;;;4807843;29;20038;-80
2021/11/17 06:45:27;;;;;;;60.72;37.30;;;205.00;2252.80;;;;;;4805800;29;20047;-80
2021/11/17 06:48:43;;;;;;;77.43;42.53;;;205.00;2252.80;;;;;;4764088;29;20449;-80
2021/11/17 06:54:57;;;;;;;88.03;47.03;;;205.00;2252.80;;;;;;4866399;29;20071;-79
2021/11/17 06:58:04;;;;;;;64.38;39.45;;;205.10;2252.80;;;;;;4924406;29;20063;-81
2021/11/17 07:01:08;;;;;;;54.15;36.50;;;205.10;2252.80;;;;;;4951506;29;20035;-80
2021/11/17 07:04:13;;;;;;;53.33;34.75;;;205.10;2252.80;;;;;;4946748;29;20111;-80
2021/11/17 07:06:47;;;;;;;55.03;36.83;;;205.00;2252.80;;;;;;4971799;28;20042;-79
2021/11/17 07:10:00;;;;;;;56.78;41.00;;;204.90;2252.80;;;;;;4971594;29;20047;-79
2021/11/17 07:12:47;;;;;;;60.65;39.50;;;204.80;2252.80;;;;;;4971975;29;20035;-80
2021/11/17 07:15:41;;;;;;;59.15;40.63;;;204.90;2252.80;;;;;;4970973;28;20035;-79
2021/11/17 07:18:11;;;;;;;61.63;40.97;;;204.80;2252.80;;;;;;4954771;29;20481;-79
2021/11/17 07:21:40;;;;;;;64.90;44.55;;;205.40;2252.80;;;;;;4973654;29;20082;-81
2021/11/17 07:24:53;;;;;;;58.97;40.20;;;205.20;2252.80;;;;;;4935333;29;20036;-81
2021/11/17 07:35:08;;;;;;;93.43;61.60;;;205.40;2252.80;;;;;;4782452;30;20045;-81
2021/11/17 07:38:31;;;;;;;83.72;60.95;;;205.40;2252.80;;;;;;4806121;30;20068;-82
2021/11/17 07:44:45;;;;;;;81.40;60.33;;;205.20;2252.80;;;;;;4804983;29;20109;-80
2021/11/17 07:47:30;;;;;;;76.38;53.45;;;205.40;2252.80;;;;;;4808910;29;20109;-80
2021/11/17 07:50:51;;;;;;;70.20;47.75;;;205.40;2252.80;;;;;;4837044;29;20037;-81
2021/11/17 07:54:13;;;;;;;63.70;45.53;;;205.60;2252.80;;;;;;4790353;30;20038;-83
2021/11/17 07:56:43;;;;;;;81.55;53.03;;;205.60;2252.80;;;;;;4821314;29;20511;-79
2021/11/17 07:59:42;;;;;;;82.75;55.33;;;205.40;2252.80;;;;;;4824287;29;20551;-80
2021/11/17 08:02:17;;;;;;;74.75;43.53;;;205.60;2252.80;;;;;;4888671;29;20093;-80
2021/11/17 08:05:32;;;;;;;69.40;44.40;;;205.70;2252.80;;;;;;4957759;28;20103;-83
2021/11/17 08:12:16;;;;;;;82.97;55.33;;;230.50;2252.80;;;;;;4919327;29;20028;-82
2021/11/17 08:15:40;;;;;;;122.57;92.70;;;230.60;2252.80;;;;;;4909835;29;20021;-80
2021/11/17 08:18:11;;;;;;;106.90;74.82;;;230.60;2252.80;;;;;;4921074;29;20040;-80
2021/11/17 08:20:42;;;;;;;175.88;120.72;;;230.70;2252.80;;;;;;4929869;29;20040;-80
2021/11/17 08:23:10;;;;;;;120.30;83.32;;;230.80;2252.80;;;;;;4914129;29;20048;-80
2021/11/17 08:25:39;;;;;;;102.68;71.90;;;230.80;2252.80;;;;;;4928445;29;20044;-80
2021/11/17 08:28:10;;;;;;;104.32;73.47;;;230.90;2252.80;;;;;;4913078;29;20024;-80
2021/11/17 08:30:37;;;;;;;99.75;69.15;;;230.90;2252.80;;;;;;4912391;29;20604;-81
2021/11/17 08:33:07;;;;;;;92.72;65.60;;;231.00;2252.80;;;;;;4929006;29;20056;-79
2021/11/17 08:35:34;;;;;;;93.57;65.63;;;231.10;2252.80;;;;;;4912356;29;20107;-80
2021/11/17 08:38:04;;;;;;;105.82;77.93;;;231.20;2252.80;;;;;;4898199;29;20036;-81
2021/11/17 08:40:38;;;;;;;112.65;84.60;;;231.30;2252.80;;;;;;4902499;29;20031;-81
2021/11/17 08:43:05;;;;;;;105.18;71.18;;;256.00;2252.80;;;;;;4906119;29;20434;-81
2021/11/17 08:45:32;;;;;;;82.80;56.95;;;231.20;2252.80;;;;;;4915896;29;20036;-80
2021/11/17 08:47:59;;;;;;;82.80;56.42;;;256.20;2252.80;;;;;;4932826;29;20039;-79
2021/11/17 08:50:28;;;;;;;74.78;51.80;;;256.20;2252.80;;;;;;4931446;29;20027;-79
2021/11/17 08:52:55;;;;;;;87.90;61.17;;;256.20;2252.80;;;;;;4932423;29;20030;-79
2021/11/17 08:55:24;;;;;;;68.28;46.20;;;256.30;2252.80;;;;;;4932920;29;20055;-79
2021/11/17 08:57:50;;;;;;;75.05;51.70;;;256.40;2252.80;;;;;;4931686;29;20048;-79
2021/11/17 09:00:20;;;;;;;68.38;46.85;;;256.50;2252.80;;;;;;4949453;29;20020;-80
2021/11/17 09:02:47;;;;;;;67.75;46.20;;;256.50;2252.80;;;;;;4950479;29;20104;-79
2021/11/17 09:05:18;;;;;;;79.00;49.40;;;256.60;2252.80;;;;;;4930464;29;20024;-80
2021/11/17 09:07:46;;;;;;;66.80;43.53;;;256.60;2252.80;;;;;;4929291;29;20064;-79
2021/11/17 09:10:20;;;;;;;65.30;42.85;;;256.70;2252.80;;;;;;4931402;29;20038;-79
2021/11/17 09:12:47;;;;;;;47.67;34.38;;;256.80;2252.80;;;;;;4933097;29;20031;-79
2021/11/17 09:15:15;;;;;;;52.28;36.03;;;256.80;2252.80;;;;;;4931914;29;20028;-79
2021/11/17 09:17:43;;;;;;;56.67;39.22;;;256.90;2252.80;;;;;;4931145;29;20035;-79
2021/11/17 09:20:11;;;;;;;99.10;43.70;;;256.90;2252.80;;;;;;4930199;29;20043;-79
2021/11/17 09:22:37;;;;;;;71.72;36.78;;;281.60;2278.40;;;;;;4940324;29;20059;-80
2021/11/17 09:25:09;;;;;;;53.33;36.17;;;281.60;2278.40;;;;;;4946909;29;20024;-79
2021/11/17 09:27:36;;;;;;;40.30;29.02;;;281.70;2278.40;;;;;;4946644;29;20063;-79
2021/11/17 09:30:05;;;;;;;42.45;29.23;;;281.70;2278.40;;;;;;4946692;29;20056;-79
2021/11/17 09:32:31;;;;;;;46.00;29.88;;;281.80;2278.40;;;;;;4946690;29;20027;-79
2021/11/17 09:35:17;;;;;;;38.55;25.25;;;281.90;2278.40;;;;;;4946261;29;20087;-79
2021/11/17 09:37:46;;;;;;;34.70;24.98;;;282.50;2278.40;;;;;;4948717;29;20036;-79
2021/11/17 09:40:24;;;;;;;42.17;31.30;;;282.10;2278.40;;;;;;4962699;29;20508;-79
2021/11/17 09:42:51;;;;;;;43.70;31.10;;;282.10;2278.40;;;;;;4947628;29;20030;-80
2021/11/17 09:45:17;;;;;;;46.10;33.42;;;282.20;2278.40;;;;;;4946506;29;20060;-79
2021/11/17 09:47:44;;;;;;;39.15;29.00;;;282.40;2278.40;;;;;;4946541;29;20056;-79
2021/11/17 09:50:36;;;;;;;41.53;29.15;;;282.50;2278.40;;;;;;4946945;29;20026;-80
2021/11/17 09:53:11;;;;;;;40.33;27.50;;;307.20;2304.00;;;;;;4946696;29;20020;-79
2021/11/17 09:55:46;;;;;;;40.35;26.38;;;307.30;2304.00;;;;;;4947363;29;20278;-79
2021/11/17 09:58:21;;;;;;;34.05;25.75;;;307.40;2304.00;;;;;;4946830;29;20509;-80
2021/11/17 10:00:57;;;;;;;31.73;21.60;;;307.50;2304.00;;;;;;4947258;29;20031;-79
2021/11/17 10:03:30;;;;;;;32.33;24.05;;;307.70;2304.00;;;;;;4947216;29;20031;-79
2021/11/17 10:06:34;;;;;;;32.70;24.75;;;307.80;2304.00;;;;;;4947193;29;20034;-79
2021/11/17 10:14:34;;;;;;;22.00;17.15;;;308.10;2304.00;;;;;;4952261;29;20079;-79
2021/11/17 10:17:01;;;;;;;27.50;21.48;;;332.80;2329.60;;;;;;4949703;29;20067;-79
2021/11/17 10:19:32;;;;;;;24.95;17.88;;;332.90;2329.60;;;;;;4951496;29;20099;-80
2021/11/17 10:22:05;;;;;;;31.45;19.88;;;333.00;2329.60;;;;;;4950242;29;20404;-79
2021/11/17 10:24:53;;;;;;;18.15;14.80;;;333.00;2329.60;;;;;;4951515;29;20024;-79
2021/11/17 10:27:28;;;;;;;29.52;21.20;;;333.20;2329.60;;;;;;4950561;29;20027;-80
2021/11/17 10:30:08;;;;;;;32.72;20.80;;;333.10;2329.60;;;;;;4950607;29;20024;-80
2021/11/17 10:32:42;;;;;;;37.38;25.33;;;333.20;2329.60;;;;;;4950345;29;20450;-79
2021/11/17 10:35:20;;;;;;;31.38;21.63;;;333.20;2329.60;;;;;;4951467;29;20024;-80
2021/11/17 10:37:57;;;;;;;44.58;26.67;;;333.30;2329.60;;;;;;4945900;29;20386;-78
2021/11/17 10:40:26;;;;;;;51.75;26.48;;;333.40;2329.60;;;;;;4944834;29;20047;-79
2021/11/17 10:43:23;;;;;;;65.25;43.28;;;333.40;2329.60;;;;;;4942594;29;20115;-80
2021/11/17 10:46:05;;;;;;;30.02;20.58;;;333.40;2329.60;;;;;;4945048;29;20031;-79
2021/11/17 10:48:35;;;;;;;30.83;22.25;;;333.40;2329.60;;;;;;4944313;29;20371;-79
2021/11/17 10:51:13;;;;;;;34.42;25.33;;;333.50;2329.60;;;;;;4943506;29;20028;-79
2021/11/17 10:53:39;;;;;;;36.58;29.17;;;333.70;2329.60;;;;;;4944814;29;20031;-79
2021/11/17 10:56:12;;;;;;;23.42;19.25;;;358.40;2329.60;;;;;;4944736;29;20099;-79
2021/11/17 10:58:42;;;;;;;30.23;22.05;;;333.70;2329.60;;;;;;4944542;29;20035;-79
2021/11/17 11:01:16;;;;;;;32.95;22.63;;;358.40;2329.60;;;;;;4952295;29;20102;-80
2021/11/17 11:03:49;;;;;;;29.17;20.70;;;358.50;2329.60;;;;;;4950006;29;20035;-80
2021/11/17 11:06:36;;;;;;;;;;;358.60;2329.60;;;;;;4950335;29;20091;-80
2021/11/17 11:09:17;;;;;;;29.70;20.35;;;358.80;2329.60;;;;;;4949837;29;19906;-80
2021/11/17 11:11:47;;;;;;;21.15;16.45;;;358.90;2329.60;;;;;;4948572;29;20031;-79
2021/11/17 11:14:53;;;;;;;26.05;17.55;;;358.80;2329.60;;;;;;4947662;29;20060;-79
2021/11/17 11:17:22;;;;;;;32.33;21.67;;;358.80;2329.60;;;;;;4949318;29;20028;-79
2021/11/17 11:19:49;;;;;;;25.95;18.58;;;358.80;2329.60;;;;;;4948500;29;20095;-79
2021/11/17 11:22:20;;;;;;;30.17;20.33;;;358.90;2329.60;;;;;;4946788;29;20524;-79
2021/11/17 11:24:48;;;;;;;26.30;21.10;;;359.00;2329.60;;;;;;4950472;29;20054;-79
2021/11/17 11:27:16;;;;;;;36.10;23.02;;;384.00;2329.60;;;;;;4956508;29;20061;-80
2021/11/17 11:30:09;;;;;;;30.83;22.42;;;359.30;2329.60;;;;;;4953163;29;20020;-80
2021/11/17 11:32:34;;;;;;;38.35;23.58;;;359.10;2329.60;;;;;;4946398;29;20043;-79
2021/11/17 11:35:01;;;;;;;43.25;23.50;;;359.00;2329.60;;;;;;4949972;29;20032;-78
2021/11/17 11:37:27;;;;;;;32.30;22.55;;;359.20;2329.60;;;;;;4947652;29;20036;-79
2021/11/17 11:40:07;;;;;;;26.63;19.88;;;384.20;2329.60;;;;;;4948860;29;20030;-78
2021/11/17 11:42:54;;;;;;;29.67;21.98;;;384.10;2329.60;;;;;;4948880;29;20412;-80
2021/11/17 11:45:26;;;;;;;43.25;30.33;;;384.00;2329.60;;;;;;4950272;29;20102;-79
2021/11/17 11:48:08;;;;;;;35.77;25.17;;;384.60;2329.60;;;;;;4949028;29;20027;-80
2021/11/17 11:50:46;;;;;;;29.58;20.65;;;384.90;2329.60;;;;;;4949243;29;20855;-80
2021/11/17 11:53:23;;;;;;;26.95;19.27;;;384.70;2278.40;;;;;;4948730;29;20035;-79
2021/11/17 11:55:57;;;;;;;24.17;16.92;;;384.70;2278.40;;;;;;4948122;29;20099;-79
2021/11/17 11:58:45;;;;;;;27.23;16.70;;;384.60;2278.40;;;;;;4949489;29;20024;-80
2021/11/17 12:01:24;;;;;;;28.98;19.10;;;384.40;2278.40;;;;;;4956897;29;20032;-81
2021/11/17 12:03:56;;;;;;;22.38;17.83;;;384.40;2304.00;;;;;;4953041;29;20026;-80
2021/11/17 12:06:43;;;;;;;24.23;18.35;;;384.40;2304.00;;;;;;4957528;29;20042;-80
2021/11/17 12:09:33;;;;;;;27.13;20.00;;;384.40;2304.00;;;;;;4953716;29;20031;-80
2021/11/17 12:12:22;;;;;;;26.60;19.90;;;384.30;2329.60;;;;;;4958936;29;20055;-80
2021/11/17 12:14:52;;;;;;;28.65;21.70;;;384.20;2329.60;;;;;;4970443;29;20035;-81
2021/11/17 12:17:28;;;;;;;59.88;37.97;;;384.30;2329.60;;;;;;4964709;29;20043;-80
2021/11/17 12:20:17;;;;;;;66.22;41.03;;;384.50;2329.60;;;;;;4967713;29;20032;-81
2021/11/17 12:22:53;;;;;;;48.60;34.03;;;384.40;2329.60;;;;;;4944096;29;20107;-81
2021/11/17 12:25:30;;;;;;;38.90;28.75;;;384.30;2329.60;;;;;;4953818;29;20015;-80
2021/11/17 12:28:15;;;;;;;41.70;31.48;;;384.30;2329.60;;;;;;4955280;29;20024;-80
2021/11/17 12:30:53;;;;;;;38.10;28.88;;;384.80;2329.60;;;;;;4952973;29;20051;-81
2021/11/17 12:33:39;;;;;;;32.40;24.38;;;384.30;2329.60;;;;;;4952889;29;20023;-81
2021/11/17 12:36:21;;;;;;;43.60;31.63;;;384.20;2329.60;;;;;;4954702;29;20043;-81
2021/11/17 12:38:52;;;;;;;36.72;31.08;;;384.60;2329.60;;;;;;4954691;29;20039;-82
2021/11/17 12:41:41;;;;;;;39.07;29.03;;;384.70;2304.00;;;;;;4955494;29;20039;-81
2021/11/17 12:44:28;;;;;;;34.17;26.38;;;384.90;2304.00;;;;;;4941576;29;20063;-81
2021/11/17 12:47:04;;;;;;;44.30;31.25;;;409.80;2278.40;;;;;;4954060;29;20035;-81
2021/11/17 12:49:39;;;;;;;45.80;33.85;;;410.00;2252.80;;;;;;4957207;29;20034;-83
2021/11/17 12:52:30;;;;;;;37.95;26.13;;;410.20;2227.20;;;;;;4971917;29;20031;-80
2021/11/17 12:55:22;;;;;;;37.42;25.58;;;410.20;2201.60;;;;;;4968939;29;20073;-80
2021/11/17 12:58:13;;;;;;;36.72;26.58;;;410.20;2227.20;;;;;;4967886;29;20039;-80
2021/11/17 13:00:55;;;;;;;37.15;27.30;;;410.20;2252.80;;;;;;4968584;29;20055;-79
2021/11/17 13:03:31;;;;;;;29.27;24.15;;;410.00;2201.60;;;;;;4973035;29;20027;-82
2021/11/17 13:06:06;;;;;;;33.10;25.00;;;410.00;2227.20;;;;;;4971237;29;20123;-79
2021/11/17 13:08:34;;;;;;;26.80;20.70;;;409.90;2227.20;;;;;;4966499;29;20024;-79
2021/11/17 13:11:20;;;;;;;27.40;20.45;;;409.70;2278.40;;;;;;4948976;29;20055;-80
2021/11/17 13:14:03;;;;;;;23.55;20.27;;;409.60;2227.20;;;;;;4949810;29;20028;-81
2021/11/17 13:16:44;;;;;;;26.20;22.10;;;384.90;2227.20;;;;;;4956727;29;20047;-81
2021/11/17 13:19:26;;;;;;;44.95;32.88;;;384.70;2252.80;;;;;;4953565;29;20024;-80
2021/11/17 13:21:57;;;;;;;49.05;32.70;;;384.70;2252.80;;;;;;4953472;29;20032;-81
2021/11/17 13:24:23;;;;;;;43.35;30.67;;;384.70;2278.40;;;;;;4932424;29;20028;-80
2021/11/17 13:27:26;;;;;;;50.28;36.08;;;384.70;2252.80;;;;;;4951153;29;20042;-81
2021/11/17 13:30:17;;;;;;;61.30;44.37;;;384.70;2252.80;;;;;;4924403;29;20035;-80
2021/11/17 13:32:50;;;;;;;46.42;31.80;;;384.90;2278.40;;;;;;4953838;29;20036;-80
2021/11/17 13:35:37;;;;;;;38.30;29.15;;;384.90;2278.40;;;;;;4953938;29;20028;-81
2021/11/17 13:38:27;;;;;;;44.03;31.60;;;409.60;2304.00;;;;;;4936096;29;20509;-80
2021/11/17 13:41:19;;;;;;;41.35;29.27;;;409.70;2304.00;;;;;;4954752;29;20020;-81
2021/11/17 13:44:18;;;;;;;44.47;33.50;;;409.80;2278.40;;;;;;4913536;29;20027;-81
2021/11/17 13:47:21;;;;;;;44.60;33.25;;;409.80;2252.80;;;;;;4974604;29;20031;-79
2021/11/17 13:50:10;;;;;;;44.27;32.17;;;409.80;2227.20;;;;;;4959701;29;20041;-79
2021/11/17 13:52:42;;;;;;;59.92;42.55;;;409.80;2227.20;;;;;;4939301;29;20126;-80
2021/11/17 13:55:14;;;;;;;65.50;45.80;;;409.70;2252.80;;;;;;4955155;29;20023;-79
2021/11/17 13:57:44;;;;;;;56.33;39.63;;;409.70;2252.80;;;;;;4955319;29;20031;-80
2021/11/17 14:00:14;;;;;;;47.33;34.83;;;409.60;2252.80;;;;;;4955484;29;20031;-79
2021/11/17 14:02:44;;;;;;;50.22;36.22;;;384.90;2227.20;;;;;;4972471;29;20039;-79
2021/11/17 14:05:10;;;;;;;54.38;39.88;;;384.90;2252.80;;;;;;4954707;29;20043;-80
2021/11/17 14:07:36;;;;;;;59.13;41.17;;;384.70;2252.80;;;;;;4955294;29;20039;-79
2021/11/17 14:10:06;;;;;;;51.17;35.78;;;384.50;2278.40;;;;;;4955679;29;20087;-80
2021/11/17 14:12:32;;;;;;;53.25;35.72;;;384.30;2304.00;;;;;;4952318;29;20179;-80
2021/11/17 14:14:58;;;;;;;52.42;36.65;;;384.00;2329.60;;;;;;4955729;29;20032;-80
2021/11/17 14:17:50;;;;;;;52.88;41.80;;;359.30;2329.60;;;;;;4956784;29;20031;-79
2021/11/17 14:20:18;;;;;;;58.30;41.63;;;359.00;2329.60;;;;;;4954535;29;20031;-81
2021/11/17 14:22:47;;;;;;;52.42;40.22;;;359.00;2329.60;;;;;;4973690;29;20043;-80
2021/11/17 14:25:20;;;;;;;55.47;42.42;;;358.90;2329.60;;;;;;4957005;29;20401;-80
2021/11/17 14:27:51;;;;;;;60.22;44.17;;;358.80;2329.60;;;;;;4955966;29;20050;-80
2021/11/17 14:30:34;;;;;;;55.83;41.50;;;358.70;2329.60;;;;;;4955319;29;20099;-81
2021/11/17 14:33:06;;;;;;;66.75;50.17;;;358.60;2329.60;;;;;;4959815;29;20031;-80
2021/11/17 14:35:33;;;;;;;75.13;52.83;;;358.50;2329.60;;;;;;4955815;29;20556;-81
2021/11/17 14:38:01;;;;;;;78.15;54.25;;;358.40;2329.60;;;;;;4955988;29;20058;-80
2021/11/17 14:40:30;;;;;;;89.45;57.40;;;333.70;2329.60;;;;;;4936975;29;20028;-80
2021/11/17 14:43:36;;;;;;;90.07;60.67;;;333.50;2329.60;;;;;;4939967;29;20027;-81
2021/11/17 14:46:01;;;;;;;86.82;57.05;;;333.50;2329.60;;;;;;4938378;29;20087;-80
2021/11/17 14:48:28;;;;;;;74.22;51.45;;;333.40;2329.60;;;;;;4935998;29;20028;-81
2021/11/17 14:50:56;;;;;;;85.95;56.70;;;333.40;2329.60;;;;;;4938194;29;20027;-80
2021/11/17 14:53:22;;;;;;;87.93;58.67;;;333.30;2329.60;;;;;;4937034;29;20024;-80
2021/11/17 14:55:53;;;;;;;104.28;62.83;;;333.20;2329.60;;;;;;4938761;29;20039;-80
2021/11/17 14:58:22;;;;;;;138.10;83.22;;;333.20;2329.60;;;;;;4937940;29;20028;-80
2021/11/17 15:01:04;;;;;;;117.32;79.43;;;333.10;2329.60;;;;;;4938244;29;20032;-82
2021/11/17 15:03:30;;;;;;;150.98;104.07;;;333.00;2329.60;;;;;;4933520;29;20035;-80
2021/11/17 15:06:01;;;;;;;113.70;77.40;;;333.00;2329.60;;;;;;4937644;29;20031;-80
2021/11/17 15:08:30;;;;;;;124.57;83.35;;;332.90;2329.60;;;;;;4922059;29;20712;-81
2021/11/17 15:10:56;;;;;;;116.03;75.50;;;332.90;2329.60;;;;;;4937623;29;20028;-80
2021/11/17 15:13:22;;;;;;;107.10;74.80;;;332.80;2329.60;;;;;;4935390;29;20028;-79
2021/11/17 15:15:49;;;;;;;100.05;74.93;;;308.10;2304.00;;;;;;4941639;29;20042;-79
2021/11/17 15:18:21;;;;;;;104.45;76.07;;;307.60;2304.00;;;;;;4936044;29;20036;-79
2021/11/17 15:20:47;;;;;;;109.70;74.38;;;308.00;2304.00;;;;;;4935373;29;20024;-79
2021/11/17 15:23:14;;;;;;;81.75;59.47;;;307.80;2304.00;;;;;;4944442;29;20060;-80
2021/11/17 15:25:43;;;;;;;90.75;63.90;;;307.70;2304.00;;;;;;4954072;29;20020;-79
2021/11/17 15:28:19;;;;;;;87.00;57.75;;;307.70;2304.00;;;;;;4951046;29;20020;-80
2021/11/17 15:30:50;;;;;;;75.45;54.22;;;307.60;2304.00;;;;;;4951314;29;20036;-79
2021/11/17 15:33:17;;;;;;;59.25;40.97;;;307.60;2304.00;;;;;;4955727;29;20528;-80
2021/11/17 15:35:44;;;;;;;66.68;46.13;;;307.50;2304.00;;;;;;4959606;29;20034;-80
2021/11/17 15:38:12;;;;;;;58.15;44.38;;;307.50;2304.00;;;;;;4956846;29;20032;-79
2021/11/17 15:40:42;;;;;;;74.75;53.47;;;307.50;2304.00;;;;;;4947484;29;20038;-79
2021/11/17 15:43:09;;;;;;;92.45;62.60;;;307.40;2304.00;;;;;;4948103;29;20027;-80
2021/11/17 15:45:35;;;;;;;133.52;82.13;;;307.20;2304.00;;;;;;4948058;29;20469;-79
2021/11/17 15:48:01;;;;;;;109.07;69.20;;;307.20;2304.00;;;;;;4950507;29;20012;-80
2021/11/17 15:50:44;;;;;;;104.28;66.45;;;282.50;2278.40;;;;;;4949722;29;20036;-79
2021/11/17 15:53:10;;;;;;;83.32;55.88;;;282.50;2278.40;;;;;;4950134;29;20035;-79
2021/11/17 15:55:36;;;;;;;84.10;54.42;;;282.40;2278.40;;;;;;4950056;29;20043;-80
2021/11/17 15:58:03;;;;;;;94.00;61.53;;;282.40;2278.40;;;;;;4953837;29;20046;-80
2021/11/17 16:00:30;;;;;;;88.07;57.20;;;282.30;2278.40;;;;;;4949822;29;20024;-79
2021/11/17 16:02:56;;;;;;;92.18;59.22;;;282.20;2278.40;;;;;;4948781;29;20024;-80
2021/11/17 16:05:23;;;;;;;81.40;53.85;;;282.30;2278.40;;;;;;4948828;29;20027;-81
2021/11/17 16:07:49;;;;;;;74.68;50.17;;;282.30;2278.40;;;;;;4948481;29;20028;-79
2021/11/17 16:10:18;;;;;;;69.50;51.20;;;282.20;2278.40;;;;;;4948646;29;20381;-80
2021/11/17 16:12:44;;;;;;;64.93;46.78;;;282.00;2278.40;;;;;;4948919;29;20078;-79
2021/11/17 16:15:11;;;;;;;69.22;48.33;;;282.00;2278.40;;;;;;4949220;29;20047;-80
2021/11/17 16:17:37;;;;;;;84.32;63.70;;;282.10;2278.40;;;;;;4948808;29;20039;-80
2021/11/17 16:20:21;;;;;;;134.77;90.35;;;307.80;2304.00;;;;;;4950916;29;20024;-80
2021/11/17 16:23:04;;;;;;;132.95;85.45;;;281.90;2278.40;;;;;;4948830;29;20046;-78
2021/11/17 16:25:43;;;;;;;126.30;84.15;;;281.90;2278.40;;;;;;4950237;29;20116;-80
2021/11/17 16:28:18;;;;;;;109.53;73.07;;;281.90;2278.40;;;;;;4951512;29;20028;-79
2021/11/17 16:30:48;;;;;;;105.47;70.40;;;281.90;2278.40;;;;;;4949938;29;20054;-79
2021/11/17 16:33:17;;;;;;;92.10;61.13;;;281.60;2278.40;;;;;;4949679;29;20024;-81
2021/11/17 16:35:45;;;;;;;75.55;52.03;;;281.60;2278.40;;;;;;4950356;29;20034;-80
2021/11/17 16:38:12;;;;;;;84.15;55.50;;;281.60;2278.40;;;;;;4945503;29;20114;-80
2021/11/17 16:40:43;;;;;;;109.20;62.35;;;256.90;2252.80;;;;;;4943395;29;20028;-80